createdAt,value
2023-04-09T00:01:11.823Z,8.09
2023-04-09T00:03:40.462Z,8.25
2023-04-09T00:06:07.803Z,7.67
2023-04-09T00:08:37.170Z,7.01
2023-04-09T00:11:04.892Z,6.66
2023-04-09T00:13:39.312Z,6.89
2023-04-09T00:16:08.543Z,7.02
2023-04-09T00:18:36.276Z,6.54
2023-04-09T00:21:03.387Z,6.21
2023-04-09T00:23:30.590Z,6.37
2023-04-09T00:25:57.748Z,6.46
2023-04-09T00:28:25.422Z,7.00
2023-04-09T00:30:52.620Z,6.98
2023-04-09T00:33:19.662Z,6.48
2023-04-09T00:35:46.763Z,6.35
2023-04-09T00:38:13.859Z,6.75
2023-04-09T00:40:41.038Z,7.22
2023-04-09T00:43:08.102Z,7.14
2023-04-09T00:45:36.040Z,6.82
2023-04-09T00:48:03.469Z,5.94
2023-04-09T00:50:30.621Z,4.98
2023-04-09T00:52:57.758Z,5.01
2023-04-09T00:55:25.891Z,5.12
2023-04-09T00:57:52.991Z,5.38
2023-04-09T01:00:20.583Z,5.30
2023-04-09T01:02:48.858Z,5.50
2023-04-09T01:05:16.096Z,5.36
2023-04-09T01:08:32.349Z,4.64
2023-04-09T01:11:20.885Z,5.13
2023-04-09T01:14:21.065Z,4.68
2023-04-09T01:16:59.925Z,5.12
2023-04-09T01:20:07.444Z,5.65
2023-04-09T01:23:04.575Z,5.07
2023-04-09T01:26:24.328Z,5.01
2023-04-09T01:28:56.001Z,5.25
2023-04-09T01:31:36.237Z,5.29
2023-04-09T01:34:06.270Z,5.52
2023-04-09T01:36:35.771Z,5.57
2023-04-09T01:39:03.617Z,5.17
2023-04-09T01:41:34.168Z,4.99
2023-04-09T01:44:05.776Z,4.84
2023-04-09T01:46:35.224Z,4.79
2023-04-09T01:49:03.034Z,4.73
2023-04-09T01:51:32.315Z,4.99
2023-04-09T01:54:00.868Z,4.92
2023-04-09T01:56:27.953Z,4.63
2023-04-09T01:58:55.273Z,4.77
2023-04-09T02:01:53.316Z,4.90
2023-04-09T02:04:31.035Z,5.04
2023-04-09T02:07:20.650Z,5.74
2023-04-09T02:09:49.419Z,5.63
2023-04-09T02:12:19.587Z,5.69
2023-04-09T02:14:49.175Z,6.02
2023-04-09T02:17:16.339Z,6.01
2023-04-09T02:19:46.562Z,6.28
2023-04-09T02:22:15.540Z,6.46
2023-04-09T02:24:42.698Z,7.08
2023-04-09T02:27:09.946Z,7.23
2023-04-09T02:29:37.071Z,7.50
2023-04-09T02:32:04.302Z,7.74
2023-04-09T02:34:31.413Z,7.49
2023-04-09T02:36:58.488Z,7.60
2023-04-09T02:39:26.026Z,7.38
2023-04-09T02:41:53.183Z,6.70
2023-04-09T02:44:20.372Z,6.96
2023-04-09T02:46:49.538Z,7.20
2023-04-09T02:49:16.728Z,7.54
2023-04-09T02:51:43.778Z,7.69
2023-04-09T02:54:10.842Z,7.64
2023-04-09T02:56:37.992Z,7.48
2023-04-09T02:59:04.998Z,7.53
2023-04-09T03:01:32.168Z,7.75
2023-04-09T03:04:00.932Z,7.95
2023-04-09T03:06:28.414Z,8.01
2023-04-09T03:08:55.536Z,7.56
2023-04-09T03:11:22.778Z,7.68
2023-04-09T03:13:50.177Z,8.03
2023-04-09T03:16:17.312Z,8.19
2023-04-09T03:18:44.493Z,7.53
2023-04-09T03:21:13.743Z,7.86
2023-04-09T03:23:42.062Z,7.92
2023-04-09T03:26:09.233Z,7.88
2023-04-09T03:28:36.421Z,7.73
2023-04-09T03:31:06.532Z,7.34
2023-04-09T03:33:33.546Z,7.79
2023-04-09T03:36:00.745Z,8.33
2023-04-09T03:38:27.832Z,8.51
2023-04-09T03:40:55.897Z,8.59
2023-04-09T03:43:22.936Z,8.67
2023-04-09T03:45:50.071Z,8.59
2023-04-09T03:48:17.147Z,8.08
2023-04-09T03:50:44.220Z,8.50
2023-04-09T03:53:11.334Z,8.56
2023-04-09T03:55:41.431Z,8.81
2023-04-09T03:58:08.528Z,9.04
2023-04-09T04:00:35.765Z,8.59
2023-04-09T04:03:03.166Z,8.06
2023-04-09T04:05:30.714Z,7.88
2023-04-09T04:07:57.787Z,8.27
2023-04-09T04:10:24.904Z,8.74
2023-04-09T04:12:54.305Z,8.40
2023-04-09T04:15:21.422Z,8.63
2023-04-09T04:17:48.525Z,8.47
2023-04-09T04:20:15.730Z,8.17
2023-04-09T04:22:42.771Z,7.54
2023-04-09T04:25:10.703Z,7.79
2023-04-09T04:27:37.812Z,7.69
2023-04-09T04:30:06.163Z,8.41
2023-04-09T04:32:33.293Z,8.00
2023-04-09T04:35:00.430Z,7.72
2023-04-09T04:37:27.613Z,7.91
2023-04-09T04:39:54.665Z,7.33
2023-04-09T04:42:23.113Z,7.79
2023-04-09T04:44:50.233Z,8.05
2023-04-09T04:47:17.665Z,7.07
2023-04-09T04:49:44.845Z,7.71
2023-04-09T04:52:11.941Z,8.05
2023-04-09T04:54:39.056Z,7.91
2023-04-09T04:57:06.165Z,8.39
2023-04-09T04:59:33.545Z,8.13
2023-04-09T05:02:02.551Z,8.56
2023-04-09T05:04:29.748Z,7.94
2023-04-09T05:06:56.804Z,8.34
2023-04-09T05:09:26.212Z,8.27
2023-04-09T05:11:53.318Z,8.73
2023-04-09T05:14:21.506Z,7.97
2023-04-09T05:16:48.659Z,7.83
2023-04-09T05:19:15.730Z,8.24
2023-04-09T05:21:42.855Z,8.26
2023-04-09T05:24:09.907Z,8.21
2023-04-09T05:26:37.087Z,8.46
2023-04-09T05:29:04.249Z,8.44
2023-04-09T05:31:31.659Z,8.46
2023-04-09T05:33:58.750Z,8.91
2023-04-09T05:36:26.192Z,7.49
2023-04-09T05:38:53.499Z,7.71
2023-04-09T05:41:20.896Z,7.89
2023-04-09T05:43:47.975Z,7.33
2023-04-09T05:46:15.239Z,7.55
2023-04-09T05:48:42.631Z,8.31
2023-04-09T05:51:09.980Z,9.06
2023-04-09T05:53:37.106Z,7.95
2023-04-09T05:56:14.812Z,7.15
2023-04-09T05:58:41.857Z,7.42
2023-04-09T06:01:10.087Z,7.64
2023-04-09T06:03:37.358Z,7.63
2023-04-09T06:06:05.004Z,7.92
2023-04-09T06:08:32.093Z,8.32
2023-04-09T06:10:59.446Z,7.51
2023-04-09T06:13:26.617Z,8.73
2023-04-09T06:15:53.830Z,9.24
2023-04-09T06:18:21.257Z,9.42
2023-04-09T06:20:48.356Z,9.94
2023-04-09T06:23:15.653Z,9.35
2023-04-09T06:25:42.959Z,8.32
2023-04-09T06:28:09.965Z,7.97
2023-04-09T06:30:37.409Z,7.98
2023-04-09T06:33:04.679Z,7.94
2023-04-09T06:35:32.433Z,8.73
2023-04-09T06:37:59.507Z,7.50
2023-04-09T06:40:27.331Z,8.76
2023-04-09T06:42:54.414Z,9.04
2023-04-09T06:45:21.646Z,8.81
2023-04-09T06:47:49.262Z,7.83
2023-04-09T06:50:16.676Z,8.24
2023-04-09T06:52:43.703Z,8.93
2023-04-09T06:55:11.492Z,9.34
2023-04-09T06:57:39.231Z,9.55
2023-04-09T07:00:07.939Z,8.54
2023-04-09T07:02:35.697Z,8.28
2023-04-09T07:05:04.241Z,9.46
2023-04-09T07:07:31.628Z,9.47
2023-04-09T07:09:58.743Z,9.78
2023-04-09T07:12:35.234Z,9.69
2023-04-09T07:15:07.591Z,9.97
2023-04-09T07:17:35.894Z,9.74
2023-04-09T07:20:03.630Z,9.77
2023-04-09T07:22:31.138Z,9.01
2023-04-09T07:24:58.265Z,9.68
2023-04-09T07:27:28.529Z,9.61
2023-04-09T07:29:59.946Z,10.31
2023-04-09T07:32:28.118Z,9.84
2023-04-09T07:34:57.229Z,8.93
2023-04-09T07:37:24.469Z,8.98
2023-04-09T07:39:51.612Z,9.30
2023-04-09T07:42:18.892Z,10.19
2023-04-09T07:44:47.412Z,10.46
2023-04-09T07:47:15.419Z,10.05
2023-04-09T07:49:42.659Z,9.01
2023-04-09T07:52:09.706Z,9.80
2023-04-09T07:54:36.836Z,9.51
2023-04-09T07:57:04.003Z,9.36
2023-04-09T07:59:31.681Z,9.74
2023-04-09T08:01:59.631Z,10.56
2023-04-09T08:04:27.328Z,10.45
2023-04-09T08:06:55.021Z,9.83
2023-04-09T08:09:22.185Z,9.54
2023-04-09T08:11:50.459Z,9.70
2023-04-09T08:14:18.795Z,10.31
2023-04-09T08:16:47.829Z,10.78
2023-04-09T08:19:17.251Z,11.35
2023-04-09T08:21:44.883Z,11.00
2023-04-09T08:24:12.676Z,11.46
2023-04-09T08:26:41.402Z,11.57
2023-04-09T08:29:12.220Z,11.62
2023-04-09T08:31:39.838Z,10.38
2023-04-09T08:34:10.428Z,10.44
2023-04-09T08:36:37.553Z,9.97
2023-04-09T08:39:04.814Z,11.24
2023-04-09T08:41:32.036Z,11.53
2023-04-09T08:43:59.913Z,12.02
2023-04-09T08:46:28.415Z,10.87
2023-04-09T08:48:56.487Z,11.47
2023-04-09T08:51:25.000Z,10.06
2023-04-09T08:54:04.382Z,10.38
2023-04-09T08:56:32.629Z,11.59
2023-04-09T08:59:00.003Z,11.82
2023-04-09T09:01:30.505Z,12.15
2023-04-09T09:04:09.500Z,12.08
2023-04-09T09:06:41.086Z,10.48
2023-04-09T09:09:16.966Z,11.24
2023-04-09T09:11:50.985Z,12.07
2023-04-09T09:14:19.836Z,10.96
2023-04-09T09:16:56.139Z,11.39
2023-04-09T09:19:30.727Z,11.60
2023-04-09T09:22:01.811Z,10.39
2023-04-09T09:24:32.466Z,10.00
2023-04-09T09:26:59.872Z,10.65
2023-04-09T09:29:28.525Z,10.20
2023-04-09T09:31:56.898Z,11.51
2023-04-09T09:34:25.883Z,11.10
2023-04-09T09:36:53.341Z,11.81
2023-04-09T09:39:22.016Z,12.82
2023-04-09T09:42:06.540Z,12.81
2023-04-09T09:44:34.052Z,13.16
2023-04-09T09:47:03.479Z,12.74
2023-04-09T09:49:30.622Z,12.98
2023-04-09T09:52:03.167Z,12.89
2023-04-09T09:54:47.673Z,11.58
2023-04-09T09:57:18.743Z,11.10
2023-04-09T10:00:00.531Z,11.18
2023-04-09T10:02:32.918Z,12.21
2023-04-09T10:05:04.525Z,12.23
2023-04-09T10:07:32.002Z,11.10
2023-04-09T10:10:01.004Z,11.85
2023-04-09T10:12:28.543Z,11.31
2023-04-09T10:14:56.574Z,12.26
2023-04-09T10:17:23.700Z,12.87
2023-04-09T10:20:32.882Z,13.17
2023-04-09T10:23:09.511Z,11.39
2023-04-09T10:25:36.814Z,11.67
2023-04-09T10:28:18.736Z,12.35
2023-04-09T10:30:46.425Z,12.32
2023-04-09T10:33:21.930Z,12.80
2023-04-09T10:35:49.218Z,12.56
2023-04-09T10:38:16.352Z,12.70
2023-04-09T10:40:49.757Z,13.08
2023-04-09T10:43:23.524Z,12.74
2023-04-09T10:45:54.433Z,13.54
2023-04-09T10:48:25.919Z,14.13
2023-04-09T10:50:53.094Z,14.33
2023-04-09T10:53:25.626Z,12.99
2023-04-09T10:55:56.966Z,11.87
2023-04-09T10:58:27.143Z,12.13
2023-04-09T11:00:55.404Z,13.06
2023-04-09T11:03:31.291Z,12.63
2023-04-09T11:06:05.924Z,13.20
2023-04-09T11:08:34.233Z,12.48
2023-04-09T11:11:02.650Z,12.45
2023-04-09T11:13:32.510Z,12.97
2023-04-09T11:16:01.472Z,13.93
2023-04-09T11:18:30.740Z,13.34
2023-04-09T11:21:01.128Z,12.88
2023-04-09T11:23:29.284Z,11.45
2023-04-09T11:25:56.702Z,12.19
2023-04-09T11:28:27.083Z,12.33
2023-04-09T11:30:54.309Z,12.66
2023-04-09T11:33:21.776Z,13.93
2023-04-09T11:35:51.652Z,13.72
2023-04-09T11:38:18.731Z,14.31
2023-04-09T11:40:49.307Z,14.30
2023-04-09T11:43:17.888Z,13.32
2023-04-09T11:45:48.373Z,12.77
2023-04-09T11:48:21.707Z,14.18
2023-04-09T11:50:49.182Z,15.57
2023-04-09T11:53:24.504Z,14.38
2023-04-09T11:55:53.274Z,13.46
2023-04-09T11:58:29.423Z,13.12
2023-04-09T12:00:59.245Z,13.21
2023-04-09T12:03:37.475Z,12.95
2023-04-09T12:06:07.327Z,13.45
2023-04-09T12:08:37.811Z,14.64
2023-04-09T12:11:15.029Z,13.93
2023-04-09T12:13:45.814Z,15.11
2023-04-09T12:16:21.277Z,15.63
2023-04-09T12:18:50.451Z,14.28
2023-04-09T12:21:19.408Z,13.38
2023-04-09T12:23:46.602Z,15.05
2023-04-09T12:26:14.593Z,14.68
2023-04-09T12:28:41.967Z,15.55
2023-04-09T12:31:11.956Z,15.35
2023-04-09T12:33:40.244Z,14.64
2023-04-09T12:36:07.512Z,13.75
2023-04-09T12:38:34.634Z,14.33
2023-04-09T12:41:02.356Z,13.51
2023-04-09T12:43:29.414Z,16.41
2023-04-09T12:45:57.136Z,13.73
2023-04-09T12:48:24.280Z,14.30
2023-04-09T12:50:51.611Z,14.32
2023-04-09T12:53:19.336Z,14.80
2023-04-09T12:55:46.806Z,14.81
2023-04-09T12:58:13.898Z,15.86
2023-04-09T13:00:41.450Z,16.69
2023-04-09T13:03:09.119Z,14.96
2023-04-09T13:05:36.382Z,15.89
2023-04-09T13:08:03.849Z,15.94
2023-04-09T13:10:31.768Z,14.91
2023-04-09T13:12:59.092Z,14.93
2023-04-09T13:15:26.226Z,16.43
2023-04-09T13:17:53.517Z,14.98
2023-04-09T13:20:20.935Z,15.15
2023-04-09T13:22:49.106Z,15.16
2023-04-09T13:25:16.638Z,15.11
2023-04-09T13:27:44.180Z,16.76
2023-04-09T13:30:11.722Z,15.18
2023-04-09T13:32:39.212Z,17.59
2023-04-09T13:35:10.232Z,18.40
2023-04-09T13:37:37.315Z,15.83
2023-04-09T13:40:05.021Z,16.39
2023-04-09T13:42:32.434Z,15.69
2023-04-09T13:44:59.575Z,16.29
2023-04-09T13:47:27.763Z,17.89
2023-04-09T13:49:57.226Z,19.35
2023-04-09T13:52:29.670Z,17.76
2023-04-09T13:54:57.059Z,17.30
2023-04-09T13:57:24.241Z,17.32
2023-04-09T13:59:51.537Z,18.99
2023-04-09T14:02:19.229Z,18.23
2023-04-09T14:04:46.677Z,17.22
2023-04-09T14:07:16.537Z,18.72
2023-04-09T14:09:43.937Z,17.47
2023-04-09T14:12:11.058Z,18.25
2023-04-09T14:14:38.200Z,18.22
2023-04-09T14:17:05.534Z,19.46
2023-04-09T14:19:32.676Z,20.11
2023-04-09T14:21:59.732Z,19.47
2023-04-09T14:24:26.858Z,18.66
2023-04-09T14:26:54.090Z,18.78
2023-04-09T14:29:22.005Z,17.62
2023-04-09T14:31:49.336Z,16.93
2023-04-09T14:34:16.728Z,16.91
2023-04-09T14:36:43.794Z,17.52
2023-04-09T14:39:12.218Z,16.58
2023-04-09T14:41:39.291Z,18.19
2023-04-09T14:44:06.415Z,17.51
2023-04-09T14:46:36.747Z,17.75
2023-04-09T14:49:03.873Z,18.64
2023-04-09T14:51:31.809Z,19.94
2023-04-09T14:53:58.946Z,19.58
2023-04-09T14:56:26.112Z,18.54
2023-04-09T14:58:54.137Z,18.17
2023-04-09T15:01:21.360Z,19.16
2023-04-09T15:03:48.526Z,19.39
2023-04-09T15:06:15.698Z,20.09
2023-04-09T15:08:44.457Z,19.36
2023-04-09T15:11:20.705Z,19.71
2023-04-09T15:13:49.945Z,18.65
2023-04-09T15:16:27.856Z,19.38
2023-04-09T15:18:58.452Z,18.90
2023-04-09T15:21:27.773Z,18.64
2023-04-09T15:23:58.849Z,18.05
2023-04-09T15:26:27.292Z,18.81
2023-04-09T15:29:07.757Z,18.91
2023-04-09T15:31:35.035Z,18.93
2023-04-09T15:34:02.185Z,17.74
2023-04-09T15:36:30.861Z,17.58
2023-04-09T15:38:58.293Z,17.48
2023-04-09T15:41:26.803Z,18.36
2023-04-09T15:43:53.934Z,18.04
2023-04-09T15:46:21.329Z,17.95
2023-04-09T15:48:48.445Z,18.37
2023-04-09T15:51:20.668Z,17.93
2023-04-09T15:53:47.930Z,16.94
2023-04-09T15:56:17.502Z,16.96
2023-04-09T15:58:44.595Z,17.81
2023-04-09T16:01:12.894Z,18.24
2023-04-09T16:03:41.145Z,17.28
2023-04-09T16:06:13.442Z,17.05
2023-04-09T16:08:40.735Z,18.42
2023-04-09T16:11:08.395Z,17.82
2023-04-09T16:13:36.194Z,18.36
2023-04-09T16:16:04.255Z,18.92
2023-04-09T16:18:31.355Z,16.99
2023-04-09T16:20:58.813Z,17.69
2023-04-09T16:23:28.517Z,17.85
2023-04-09T16:25:57.729Z,17.75
2023-04-09T16:28:26.189Z,17.52
2023-04-09T16:30:53.994Z,18.10
2023-04-09T16:33:21.188Z,19.48
2023-04-09T16:35:48.393Z,20.10
2023-04-09T16:38:15.621Z,19.39
2023-04-09T16:40:43.842Z,18.88
2023-04-09T16:43:11.455Z,19.30
2023-04-09T16:45:41.432Z,19.53
2023-04-09T16:48:12.076Z,19.41
2023-04-09T16:50:40.772Z,19.37
2023-04-09T16:53:10.332Z,18.50
2023-04-09T16:55:37.553Z,19.29
2023-04-09T16:58:04.675Z,18.87
2023-04-09T17:00:31.840Z,17.92
2023-04-09T17:03:02.229Z,17.68
2023-04-09T17:05:29.904Z,17.38
2023-04-09T17:08:00.628Z,17.00
2023-04-09T17:10:28.142Z,16.62
2023-04-09T17:12:55.211Z,16.81
2023-04-09T17:15:25.912Z,16.61
2023-04-09T17:17:53.910Z,16.21
2023-04-09T17:20:24.192Z,16.66
2023-04-09T17:22:51.826Z,16.66
2023-04-09T17:25:20.410Z,16.34
2023-04-09T17:27:47.552Z,16.29
2023-04-09T17:30:14.801Z,16.02
2023-04-09T17:32:43.678Z,15.98
2023-04-09T17:35:10.846Z,15.82
2023-04-09T17:37:38.602Z,16.05
2023-04-09T17:40:06.967Z,15.93
2023-04-09T17:42:36.294Z,15.77
2023-04-09T17:45:04.549Z,15.65
2023-04-09T17:47:31.697Z,15.81
2023-04-09T17:49:59.666Z,15.62
2023-04-09T17:52:26.746Z,15.57
2023-04-09T17:54:53.810Z,15.49
2023-04-09T17:57:20.910Z,15.38
2023-04-09T17:59:48.859Z,15.53
2023-04-09T18:02:16.065Z,15.40
2023-04-09T18:04:43.353Z,15.13
2023-04-09T18:07:10.560Z,15.15
2023-04-09T18:09:39.175Z,15.13
2023-04-09T18:12:06.390Z,15.04
2023-04-09T18:14:33.628Z,13.74
2023-04-09T18:17:01.134Z,13.00
2023-04-09T18:19:28.338Z,12.27
2023-04-09T18:21:55.436Z,12.15
2023-04-09T18:24:22.489Z,11.89
2023-04-09T18:26:49.638Z,11.60
2023-04-09T18:29:16.741Z,11.08
2023-04-09T18:31:43.882Z,11.77
2023-04-09T18:34:11.496Z,12.29
2023-04-09T18:36:38.996Z,12.40
2023-04-09T18:39:06.520Z,11.79
2023-04-09T18:41:33.581Z,11.53
2023-04-09T18:44:00.810Z,11.78
2023-04-09T18:46:28.115Z,12.05
2023-04-09T18:48:56.291Z,12.11
2023-04-09T18:51:23.390Z,11.92
2023-04-09T18:53:53.082Z,11.71
2023-04-09T18:56:21.275Z,11.54
2023-04-09T18:58:48.668Z,11.10
2023-04-09T19:01:17.387Z,11.39
2023-04-09T19:03:44.849Z,11.55
2023-04-09T19:06:18.572Z,11.59
2023-04-09T19:08:47.592Z,11.08
2023-04-09T19:11:15.325Z,10.93
2023-04-09T19:13:42.408Z,11.08
2023-04-09T19:16:09.718Z,11.14
2023-04-09T19:18:37.810Z,10.99
2023-04-09T19:21:07.377Z,11.08
2023-04-09T19:23:34.942Z,11.13
2023-04-09T19:26:03.108Z,11.06
2023-04-09T19:28:30.597Z,10.85
2023-04-09T19:30:59.614Z,10.83
2023-04-09T19:33:27.840Z,11.04
2023-04-09T19:35:56.029Z,11.14
2023-04-09T19:38:23.250Z,10.98
2023-04-09T19:40:50.409Z,10.97
2023-04-09T19:43:17.605Z,10.68
2023-04-09T19:45:46.890Z,10.71
2023-04-09T19:48:14.082Z,10.96
2023-04-09T19:50:42.919Z,10.76
2023-04-09T19:53:10.697Z,10.36
2023-04-09T19:55:38.088Z,10.04
2023-04-09T19:58:06.626Z,9.77
2023-04-09T20:00:34.546Z,10.18
2023-04-09T20:03:02.883Z,10.49
2023-04-09T20:05:30.227Z,10.22
2023-04-09T20:07:57.418Z,10.15
2023-04-09T20:10:24.889Z,10.48
2023-04-09T20:12:52.335Z,10.71
2023-04-09T20:15:22.847Z,10.28
2023-04-09T20:17:51.369Z,9.47
2023-04-09T20:20:19.848Z,9.18
2023-04-09T20:22:55.570Z,9.07
2023-04-09T20:25:24.877Z,9.22
2023-04-09T20:27:58.683Z,9.24
2023-04-09T20:30:25.978Z,8.43
2023-04-09T20:32:53.121Z,7.77
2023-04-09T20:35:20.452Z,7.74
2023-04-09T20:37:49.137Z,8.53
2023-04-09T20:40:18.680Z,9.65
2023-04-09T20:42:46.069Z,9.96
2023-04-09T20:45:13.237Z,10.23
2023-04-09T20:47:41.035Z,10.35
2023-04-09T20:50:10.345Z,9.05
2023-04-09T20:52:38.233Z,8.70
2023-04-09T20:55:08.296Z,8.55
2023-04-09T20:57:35.385Z,8.40
2023-04-09T21:00:03.175Z,8.61
2023-04-09T21:02:30.987Z,8.40
2023-04-09T21:05:08.309Z,8.01
2023-04-09T21:07:49.498Z,7.60
2023-04-09T21:10:16.716Z,8.05
2023-04-09T21:12:43.809Z,8.99
2023-04-09T21:15:11.729Z,9.49
2023-04-09T21:17:38.896Z,9.79
2023-04-09T21:20:09.271Z,8.87
2023-04-09T21:22:36.663Z,8.09
2023-04-09T21:25:07.156Z,7.53
2023-04-09T21:27:34.346Z,7.64
2023-04-09T21:30:01.441Z,8.05
2023-04-09T21:32:28.615Z,8.04
2023-04-09T21:34:55.698Z,7.70
2023-04-09T21:37:22.814Z,7.21
2023-04-09T21:39:50.089Z,7.08
2023-04-09T21:42:17.178Z,6.82
2023-04-09T21:44:44.314Z,6.70
2023-04-09T21:47:12.135Z,6.52
2023-04-09T21:49:40.357Z,6.58
2023-04-09T21:52:14.127Z,6.96
2023-04-09T21:54:43.898Z,6.81
2023-04-09T21:57:11.719Z,6.98
2023-04-09T21:59:40.981Z,7.32
2023-04-09T22:02:09.250Z,7.70
2023-04-09T22:04:36.432Z,8.12
2023-04-09T22:07:04.162Z,7.73
2023-04-09T22:09:31.547Z,7.37
2023-04-09T22:11:59.560Z,7.67
2023-04-09T22:14:29.264Z,8.10
2023-04-09T22:17:01.498Z,8.78
2023-04-09T22:19:32.026Z,9.17
2023-04-09T22:21:59.782Z,9.39
2023-04-09T22:24:28.593Z,9.50
2023-04-09T22:26:58.765Z,8.76
2023-04-09T22:29:26.818Z,8.61
2023-04-09T22:31:55.712Z,8.60
2023-04-09T22:34:22.838Z,8.07
2023-04-09T22:36:50.675Z,6.97
2023-04-09T22:39:17.825Z,7.00
2023-04-09T22:41:44.916Z,7.94
2023-04-09T22:44:12.091Z,7.94
2023-04-09T22:46:39.177Z,7.07
2023-04-09T22:49:06.552Z,6.32
2023-04-09T22:51:36.744Z,6.41
2023-04-09T22:54:04.201Z,6.54
2023-04-09T22:56:32.271Z,6.43
2023-04-09T22:58:59.685Z,6.92
2023-04-09T23:01:27.952Z,6.89
2023-04-09T23:03:55.577Z,7.28
2023-04-09T23:06:22.919Z,7.22
2023-04-09T23:08:50.527Z,7.61
2023-04-09T23:11:17.812Z,7.52
2023-04-09T23:13:44.977Z,7.32
2023-04-09T23:16:12.151Z,6.96
2023-04-09T23:18:39.339Z,6.51
2023-04-09T23:21:10.974Z,6.72
2023-04-09T23:23:39.103Z,6.83
2023-04-09T23:26:06.829Z,6.62
2023-04-09T23:28:34.158Z,6.96
2023-04-09T23:31:01.554Z,7.03
2023-04-09T23:33:28.656Z,7.17
2023-04-09T23:35:55.757Z,7.06
2023-04-09T23:38:23.315Z,6.72
2023-04-09T23:40:50.584Z,6.77
2023-04-09T23:43:17.640Z,7.69
2023-04-09T23:45:44.900Z,8.02
2023-04-09T23:48:12.874Z,8.44
2023-04-09T23:50:41.132Z,7.76
2023-04-09T23:53:08.715Z,6.77
2023-04-09T23:55:41.279Z,6.52
2023-04-09T23:58:09.428Z,7.10
